Time;durP1;ratioP1;P1;durP2;ratioP2;P2;SDS_P1;SDS_P2;PMS_P1;PMS_P2;Temp;Humidity;BMP_temperature;BMP_pressure;BME280_temperature;BME280_humidity;BME280_pressure;Samples;Min_cycle;Max_cycle;Signal;HPM_P1;HPM_P2
2022/07/02 00:02:04;;;;;;;12.50;11.70;;;12.00;99.90;;;;;;5096564;28;20468;-66
2022/07/02 00:04:33;;;;;;;12.90;11.93;;;12.00;99.90;;;;;;5096531;28;20457;-66
2022/07/02 00:07:00;;;;;;;12.93;11.70;;;12.00;99.90;;;;;;5099922;28;20461;-65
2022/07/02 00:09:27;;;;;;;12.53;11.53;;;11.90;99.90;;;;;;5095123;28;20488;-64
2022/07/02 00:11:58;;;;;;;11.40;10.70;;;11.90;99.90;;;;;;5094303;28;20458;-66
2022/07/02 00:14:26;;;;;;;11.97;11.27;;;11.80;99.90;;;;;;5089358;28;20505;-65
2022/07/02 00:16:54;;;;;;;11.53;10.93;;;11.70;99.90;;;;;;5100345;28;20457;-65
2022/07/02 00:19:24;;;;;;;13.30;12.50;;;11.70;99.90;;;;;;5097312;28;20929;-65
2022/07/02 00:21:52;;;;;;;12.80;11.70;;;11.70;99.90;;;;;;5091404;28;20458;-65
2022/07/02 00:24:21;;;;;;;12.17;11.47;;;11.60;99.90;;;;;;5091420;28;20522;-65
2022/07/02 00:26:57;;;;;;;13.00;11.90;;;11.60;99.90;;;;;;5093832;28;20489;-65
2022/07/02 00:29:31;;;;;;;13.47;12.33;;;11.60;99.90;;;;;;5093398;28;20496;-65
2022/07/02 00:31:59;;;;;;;12.60;11.80;;;11.50;99.90;;;;;;5093771;28;20445;-65
2022/07/02 00:34:28;;;;;;;13.40;12.70;;;11.60;99.90;;;;;;5094513;28;20465;-65
2022/07/02 00:36:58;;;;;;;13.47;12.40;;;11.60;99.90;;;;;;5093322;28;20868;-65
2022/07/02 00:39:27;;;;;;;12.73;12.03;;;11.70;99.90;;;;;;5094963;28;20511;-66
2022/07/02 00:41:55;;;;;;;13.40;12.70;;;11.70;99.90;;;;;;5095172;28;20461;-65
2022/07/02 00:44:23;;;;;;;13.90;13.00;;;11.70;99.90;;;;;;5095732;28;20544;-65
2022/07/02 00:46:54;;;;;;;12.40;11.80;;;11.60;99.90;;;;;;5102448;28;20465;-65
2022/07/02 00:49:22;;;;;;;12.90;12.17;;;11.60;99.90;;;;;;5096538;28;20494;-65
2022/07/02 00:51:50;;;;;;;13.57;12.50;;;11.50;99.90;;;;;;5095709;28;20471;-66
2022/07/02 00:54:17;;;;;;;13.27;12.20;;;11.50;99.90;;;;;;5097687;28;20928;-65
2022/07/02 00:56:44;;;;;;;13.67;12.87;;;11.40;99.90;;;;;;5093181;28;20466;-65
2022/07/02 00:59:11;;;;;;;12.90;12.20;;;11.40;99.90;;;;;;5088769;28;20470;-66
2022/07/02 01:01:38;;;;;;;12.97;12.10;;;11.30;99.90;;;;;;5094000;28;20461;-66
2022/07/02 01:04:08;;;;;;;14.17;13.17;;;11.30;99.90;;;;;;5095826;28;21064;-66
2022/07/02 01:06:41;;;;;;;13.50;12.60;;;11.30;99.90;;;;;;5093426;28;20463;-65
2022/07/02 01:11:56;;;;;;;13.97;13.00;;;11.20;99.90;;;;;;5098927;28;20510;-65
2022/07/02 01:14:24;;;;;;;13.90;12.33;;;11.20;99.90;;;;;;5093143;28;20976;-65
2022/07/02 01:16:50;;;;;;;14.03;13.03;;;11.20;99.90;;;;;;5092482;28;20984;-65
2022/07/02 01:19:20;;;;;;;14.30;12.90;;;11.20;99.90;;;;;;5088507;28;20816;-66
2022/07/02 01:22:14;;;;;;;13.57;12.77;;;11.20;99.90;;;;;;5094419;28;20464;-66
2022/07/02 01:24:42;;;;;;;13.87;12.87;;;11.20;99.90;;;;;;5096228;28;20457;-65
2022/07/02 01:27:11;;;;;;;14.13;13.23;;;11.20;99.90;;;;;;5097445;28;20568;-65
2022/07/02 01:29:40;;;;;;;12.93;12.03;;;11.20;99.90;;;;;;5097849;28;20497;-66
2022/07/02 01:32:08;;;;;;;13.47;12.40;;;11.20;99.90;;;;;;5091831;28;20517;-65
2022/07/02 01:34:37;;;;;;;13.60;12.70;;;11.30;99.90;;;;;;5099640;28;20462;-65
2022/07/02 01:37:08;;;;;;;13.80;12.90;;;11.20;99.90;;;;;;5098201;28;20464;-66
2022/07/02 01:39:36;;;;;;;13.23;12.23;;;11.10;99.90;;;;;;5095949;28;20453;-64
2022/07/02 01:42:05;;;;;;;12.70;11.77;;;11.10;99.90;;;;;;5099876;28;20466;-66
2022/07/02 01:47:14;;;;;;;13.77;12.87;;;11.00;99.90;;;;;;5094414;27;20541;-66
2022/07/02 01:49:42;;;;;;;13.03;12.33;;;11.10;99.90;;;;;;5103865;28;21033;-65
2022/07/02 01:52:09;;;;;;;13.87;12.97;;;11.20;99.90;;;;;;5099319;28;20466;-66
2022/07/02 01:54:37;;;;;;;14.10;13.00;;;11.20;99.90;;;;;;5101028;28;20453;-66
2022/07/02 01:57:06;;;;;;;13.73;12.93;;;11.20;99.90;;;;;;5100494;28;20461;-65
2022/07/02 01:59:34;;;;;;;13.90;13.00;;;11.30;99.90;;;;;;5096388;28;20768;-65
2022/07/02 02:02:02;;;;;;;14.23;12.93;;;11.40;99.90;;;;;;5104012;28;20462;-65
2022/07/02 02:04:28;;;;;;;18.03;12.77;;;11.50;99.90;;;;;;5105938;28;20461;-66
2022/07/02 02:06:56;;;;;;;13.23;12.20;;;11.60;99.90;;;;;;5100220;28;20465;-67
2022/07/02 02:09:24;;;;;;;13.10;12.30;;;11.60;99.90;;;;;;5100946;28;20835;-66
2022/07/02 02:11:52;;;;;;;13.17;12.33;;;11.50;99.90;;;;;;5097443;28;20469;-67
2022/07/02 02:14:20;;;;;;;13.90;13.00;;;11.50;99.90;;;;;;5099877;28;20462;-67
2022/07/02 02:16:47;;;;;;;14.30;13.27;;;11.40;99.90;;;;;;5098618;28;20831;-67
2022/07/02 02:19:13;;;;;;;13.90;12.80;;;11.40;99.90;;;;;;5091915;28;20458;-64
2022/07/02 02:21:41;;;;;;;14.67;13.37;;;11.20;99.90;;;;;;5095848;28;20474;-66
2022/07/02 02:24:10;;;;;;;14.50;13.40;;;11.10;99.90;;;;;;5094943;28;20457;-67
2022/07/02 02:26:36;;;;;;;12.90;12.10;;;11.00;99.90;;;;;;5093437;28;20489;-65
2022/07/02 02:29:05;;;;;;;14.40;13.60;;;11.00;99.90;;;;;;5098862;28;20843;-68
2022/07/02 02:31:32;;;;;;;14.37;13.47;;;10.90;99.90;;;;;;5096295;28;20462;-66
2022/07/02 02:33:59;;;;;;;14.20;12.67;;;10.80;99.90;;;;;;5100037;28;20822;-66
2022/07/02 02:36:26;;;;;;;14.33;13.53;;;10.80;99.90;;;;;;5095535;28;20869;-65
2022/07/02 02:38:54;;;;;;;13.40;12.10;;;10.80;99.90;;;;;;5100051;28;20536;-66
2022/07/02 02:41:22;;;;;;;14.07;13.10;;;10.80;99.90;;;;;;5094527;28;20480;-67
2022/07/02 02:43:50;;;;;;;12.23;11.63;;;10.80;99.90;;;;;;5096279;28;20472;-67
2022/07/02 02:46:19;;;;;;;13.63;12.73;;;10.70;99.90;;;;;;5101789;28;20526;-66
2022/07/02 02:48:47;;;;;;;14.17;13.37;;;10.60;99.90;;;;;;5095603;28;20972;-65
2022/07/02 02:51:15;;;;;;;14.03;12.83;;;10.60;99.90;;;;;;5098420;28;20498;-65
2022/07/02 02:53:42;;;;;;;13.10;12.40;;;10.50;99.90;;;;;;5089191;28;20468;-66
2022/07/02 02:56:10;;;;;;;13.83;12.50;;;10.40;99.90;;;;;;5096195;28;20457;-67
2022/07/02 02:58:37;;;;;;;13.93;12.70;;;10.40;99.90;;;;;;5098521;28;20458;-66
2022/07/02 03:01:04;;;;;;;15.40;14.03;;;10.40;99.90;;;;;;5103384;28;20457;-66
2022/07/02 03:03:32;;;;;;;14.03;13.23;;;10.30;99.90;;;;;;5099261;28;20465;-66
2022/07/02 03:06:00;;;;;;;13.67;12.77;;;10.30;99.90;;;;;;5096515;28;20462;-66
2022/07/02 03:08:27;;;;;;;15.10;14.10;;;10.30;99.90;;;;;;5089771;28;20485;-66
2022/07/02 03:10:55;;;;;;;15.33;14.23;;;10.30;99.90;;;;;;5095376;28;20486;-66
2022/07/02 03:13:22;;;;;;;13.90;13.20;;;10.30;99.90;;;;;;5093117;28;20565;-65
2022/07/02 03:15:49;;;;;;;14.83;13.93;;;10.30;99.90;;;;;;5093869;28;20485;-67
2022/07/02 03:18:16;;;;;;;14.20;13.20;;;10.20;99.90;;;;;;5096271;28;20454;-65
2022/07/02 03:20:46;;;;;;;14.00;13.20;;;10.20;99.90;;;;;;5095093;28;20465;-66
2022/07/02 03:23:13;;;;;;;14.67;13.60;;;10.20;99.90;;;;;;5089998;28;20466;-66
2022/07/02 03:25:40;;;;;;;14.13;12.97;;;10.20;99.90;;;;;;5094843;28;20489;-67
2022/07/02 03:28:07;;;;;;;13.97;13.03;;;10.20;99.90;;;;;;5095008;28;20514;-66
2022/07/02 03:30:34;;;;;;;14.70;13.50;;;10.30;99.90;;;;;;5093859;28;20555;-66
2022/07/02 03:33:01;;;;;;;14.40;13.40;;;10.30;99.90;;;;;;5090560;28;20465;-67
2022/07/02 03:35:27;;;;;;;14.13;13.30;;;10.30;99.90;;;;;;5089358;28;21002;-65
2022/07/02 03:37:55;;;;;;;14.37;13.47;;;10.30;99.90;;;;;;5096097;28;20461;-65
2022/07/02 03:40:22;;;;;;;14.47;13.37;;;10.30;99.90;;;;;;5098286;28;20457;-66
2022/07/02 03:42:49;;;;;;;14.30;13.30;;;10.30;99.90;;;;;;5096640;28;20838;-66
2022/07/02 03:45:16;;;;;;;15.70;14.17;;;10.30;99.90;;;;;;5095879;28;20466;-67
2022/07/02 03:47:43;;;;;;;15.20;13.80;;;10.30;99.90;;;;;;5097591;28;20466;-65
2022/07/02 03:50:12;;;;;;;14.57;13.70;;;10.30;99.90;;;;;;5093183;28;20473;-66
2022/07/02 03:52:39;;;;;;;14.10;13.00;;;10.30;99.90;;;;;;5099351;28;20975;-66
2022/07/02 03:55:08;;;;;;;14.80;14.00;;;10.30;99.90;;;;;;5095955;28;20863;-67
2022/07/02 03:57:35;;;;;;;15.33;14.10;;;10.30;99.90;;;;;;5099139;28;20465;-65
2022/07/02 04:00:03;;;;;;;15.27;13.93;;;10.30;99.90;;;;;;5091730;28;20461;-67
2022/07/02 04:02:30;;;;;;;15.40;14.50;;;10.30;99.90;;;;;;5079111;28;20561;-65
2022/07/02 04:04:57;;;;;;;15.10;14.20;;;10.40;99.90;;;;;;5074060;28;20580;-67
2022/07/02 04:07:23;;;;;;;15.97;14.13;;;10.40;99.90;;;;;;5072839;28;20470;-67
2022/07/02 04:09:50;;;;;;;15.10;14.10;;;10.40;99.90;;;;;;5073806;28;20493;-66
2022/07/02 04:12:18;;;;;;;15.60;14.40;;;10.40;99.90;;;;;;5072206;28;20457;-67
2022/07/02 04:14:46;;;;;;;17.27;13.73;;;10.50;99.90;;;;;;5074387;28;20976;-66
2022/07/02 04:17:13;;;;;;;13.67;12.23;;;10.50;99.90;;;;;;5073722;28;20474;-66
2022/07/02 04:19:39;;;;;;;15.73;14.20;;;10.50;99.90;;;;;;5074269;28;20641;-66
2022/07/02 04:22:06;;;;;;;14.43;13.13;;;10.60;99.90;;;;;;5073957;28;20776;-66
2022/07/02 04:24:34;;;;;;;25.07;15.03;;;10.50;99.90;;;;;;5073775;28;21395;-66
2022/07/02 04:27:00;;;;;;;14.53;13.13;;;10.60;99.90;;;;;;5072913;28;20528;-66
2022/07/02 04:29:29;;;;;;;14.07;12.80;;;10.60;99.90;;;;;;5073811;28;20461;-67
2022/07/02 04:31:56;;;;;;;13.80;12.60;;;10.60;99.90;;;;;;5072363;28;20549;-66
2022/07/02 04:34:22;;;;;;;14.53;13.00;;;10.70;99.90;;;;;;5073468;28;20469;-67
2022/07/02 04:36:49;;;;;;;14.53;12.97;;;10.70;99.90;;;;;;5073575;28;20469;-67
2022/07/02 04:39:16;;;;;;;19.40;13.73;;;10.80;99.90;;;;;;5073181;28;20466;-65
2022/07/02 04:41:43;;;;;;;15.03;13.60;;;10.80;99.90;;;;;;5073106;28;20817;-67
2022/07/02 04:44:10;;;;;;;18.57;13.60;;;11.00;99.90;;;;;;5072389;28;20465;-66
2022/07/02 04:46:38;;;;;;;15.13;13.50;;;11.10;99.90;;;;;;5073416;28;20975;-65
2022/07/02 04:49:05;;;;;;;14.37;13.07;;;11.20;99.90;;;;;;5073715;28;20548;-66
2022/07/02 04:51:32;;;;;;;15.20;13.70;;;11.40;99.90;;;;;;5073397;28;20493;-65
2022/07/02 04:53:59;;;;;;;18.83;15.10;;;11.50;99.90;;;;;;5072756;28;20466;-67
2022/07/02 04:56:27;;;;;;;18.90;14.27;;;11.60;99.90;;;;;;5072747;28;20462;-66
2022/07/02 04:58:55;;;;;;;21.10;15.60;;;11.70;99.90;;;;;;5073105;28;21082;-68
2022/07/02 05:01:23;;;;;;;21.70;15.00;;;12.00;99.90;;;;;;5072754;28;20628;-66
2022/07/02 05:03:52;;;;;;;13.53;12.00;;;12.20;99.90;;;;;;5073051;28;20600;-65
2022/07/02 05:06:19;;;;;;;20.00;13.90;;;12.30;99.90;;;;;;5073052;28;20534;-67
2022/07/02 05:08:46;;;;;;;16.10;13.00;;;12.50;99.90;;;;;;5075885;28;20465;-66
2022/07/02 05:11:15;;;;;;;21.93;13.10;;;12.50;99.90;;;;;;5076443;28;20701;-64
2022/07/02 05:13:42;;;;;;;13.90;12.30;;;12.60;99.90;;;;;;5076630;28;20460;-65
2022/07/02 05:16:10;;;;;;;16.30;13.37;;;12.70;99.90;;;;;;5076781;28;20458;-64
2022/07/02 05:18:37;;;;;;;25.33;13.10;;;12.70;99.90;;;;;;5076132;28;20991;-64
2022/07/02 05:21:06;;;;;;;25.73;16.50;;;12.80;99.90;;;;;;5077158;28;20473;-65
2022/07/02 05:23:33;;;;;;;22.00;14.50;;;13.00;99.90;;;;;;5076700;28;21284;-65
2022/07/02 05:25:59;;;;;;;20.70;14.50;;;13.10;99.90;;;;;;5075869;28;20562;-65
2022/07/02 05:28:28;;;;;;;16.30;13.20;;;13.30;99.90;;;;;;5075588;28;20457;-65
2022/07/02 05:30:55;;;;;;;28.80;14.03;;;13.40;99.90;;;;;;5076505;28;20582;-64
2022/07/02 05:33:22;;;;;;;22.60;13.93;;;13.50;99.90;;;;;;5076549;28;20638;-66
2022/07/02 05:35:49;;;;;;;17.13;13.83;;;13.60;99.90;;;;;;5076290;28;20469;-66
2022/07/02 05:38:17;;;;;;;18.00;13.60;;;13.80;99.90;;;;;;5076256;28;20458;-66
2022/07/02 05:40:43;;;;;;;16.13;12.73;;;13.90;99.90;;;;;;5076496;28;20460;-66
2022/07/02 05:43:10;;;;;;;21.50;13.23;;;14.00;99.90;;;;;;5076258;28;20466;-66
2022/07/02 05:45:37;;;;;;;21.93;13.57;;;14.20;99.90;;;;;;5075896;28;20971;-65
2022/07/02 05:48:05;;;;;;;17.40;12.50;;;14.40;99.90;;;;;;5076747;28;20485;-67
2022/07/02 05:50:31;;;;;;;15.00;13.00;;;14.50;99.90;;;;;;5075229;28;20492;-65
2022/07/02 05:52:58;;;;;;;16.60;12.10;;;14.60;99.90;;;;;;5075178;28;20452;-66
2022/07/02 05:55:27;;;;;;;16.67;13.40;;;14.70;99.90;;;;;;5075994;28;20470;-65
2022/07/02 05:57:53;;;;;;;28.83;13.37;;;14.90;99.90;;;;;;5075344;28;20453;-67
2022/07/02 06:00:20;;;;;;;13.33;11.93;;;14.90;99.90;;;;;;5075183;28;20462;-66
2022/07/02 06:02:47;;;;;;;15.40;12.50;;;15.00;99.90;;;;;;5070360;28;20465;-66
2022/07/02 06:07:54;;;;;;;21.50;12.30;;;15.20;99.90;;;;;;5032105;28;20481;-68
2022/07/02 06:10:21;;;;;;;15.90;11.80;;;15.40;99.90;;;;;;5073583;28;20863;-64
2022/07/02 06:12:51;;;;;;;13.77;11.90;;;15.60;99.90;;;;;;5072119;28;20458;-67
2022/07/02 06:15:19;;;;;;;18.00;11.60;;;15.80;99.90;;;;;;5073079;28;20832;-67
2022/07/02 06:17:47;;;;;;;18.57;11.13;;;15.90;99.90;;;;;;5073488;28;20461;-68
2022/07/02 06:20:15;;;;;;;25.13;12.33;;;15.90;99.90;;;;;;5073040;28;20844;-66
2022/07/02 06:22:42;;;;;;;11.77;10.80;;;16.00;99.90;;;;;;5072879;28;20521;-66
2022/07/02 06:25:10;;;;;;;19.23;11.20;;;16.10;99.90;;;;;;5073360;28;20489;-66
2022/07/02 06:27:38;;;;;;;25.87;11.90;;;16.20;99.90;;;;;;5072819;28;20474;-65
2022/07/02 06:30:07;;;;;;;14.60;11.40;;;16.40;99.90;;;;;;5072784;28;20469;-65
2022/07/02 06:32:35;;;;;;;12.07;11.17;;;16.50;99.90;;;;;;5071889;28;20460;-67
2022/07/02 06:35:02;;;;;;;13.40;11.40;;;16.60;99.90;;;;;;5073095;28;21049;-65
2022/07/02 06:37:29;;;;;;;16.10;11.13;;;16.80;99.90;;;;;;5071302;28;20450;-67
2022/07/02 06:39:57;;;;;;;14.33;10.43;;;16.90;99.90;;;;;;5072803;28;20470;-65
2022/07/02 06:42:26;;;;;;;12.17;11.00;;;17.20;99.90;;;;;;5072640;28;20482;-66
2022/07/02 06:44:54;;;;;;;20.87;11.93;;;17.40;99.90;;;;;;5071917;28;20549;-66
2022/07/02 06:47:23;;;;;;;16.27;11.60;;;17.50;99.90;;;;;;5073365;28;20579;-67
2022/07/02 06:49:50;;;;;;;14.40;11.43;;;17.70;99.90;;;;;;5072977;28;20900;-68
2022/07/02 06:52:18;;;;;;;20.53;10.80;;;17.80;99.90;;;;;;5072049;28;20504;-66
2022/07/02 06:54:46;;;;;;;12.33;11.20;;;18.00;99.90;;;;;;5073547;28;20461;-67
2022/07/02 06:57:13;;;;;;;18.27;12.13;;;18.20;99.90;;;;;;5071688;28;20957;-65
2022/07/02 06:59:39;;;;;;;24.47;13.00;;;18.30;99.90;;;;;;5070439;28;20469;-65
2022/07/02 07:02:07;;;;;;;17.10;12.30;;;18.50;99.90;;;;;;5072904;28;20519;-66
2022/07/02 07:04:37;;;;;;;20.33;12.60;;;18.60;99.90;;;;;;5072062;28;20458;-67
2022/07/02 07:07:05;;;;;;;21.37;12.73;;;18.80;99.90;;;;;;5072421;28;20461;-66
2022/07/02 07:09:34;;;;;;;15.70;13.33;;;18.90;99.90;;;;;;5072449;28;20485;-67
2022/07/02 07:12:04;;;;;;;21.70;13.00;;;19.10;99.90;;;;;;5071987;28;20894;-67
2022/07/02 07:14:31;;;;;;;21.83;13.30;;;19.40;99.90;;;;;;5072341;28;20478;-66
2022/07/02 07:16:58;;;;;;;15.60;13.13;;;19.40;99.90;;;;;;5070881;28;20479;-67
2022/07/02 07:19:25;;;;;;;24.00;13.30;;;19.60;99.90;;;;;;5072597;28;20468;-67
2022/07/02 07:21:53;;;;;;;16.50;13.30;;;19.70;99.90;;;;;;5072235;28;20559;-66
2022/07/02 07:24:20;;;;;;;16.63;12.73;;;19.80;99.90;;;;;;5071301;28;20695;-66
2022/07/02 07:26:47;;;;;;;13.13;12.00;;;19.90;99.90;;;;;;5072224;28;20501;-67
2022/07/02 07:29:13;;;;;;;14.17;12.83;;;20.10;99.90;;;;;;5071930;28;20469;-67
2022/07/02 07:31:41;;;;;;;15.70;12.80;;;20.30;99.90;;;;;;5071263;28;20500;-66
2022/07/02 07:34:08;;;;;;;14.20;12.87;;;20.40;99.90;;;;;;5070097;28;20474;-66
2022/07/02 07:36:36;;;;;;;16.07;12.67;;;20.60;99.90;;;;;;5070299;28;20458;-66
2022/07/02 07:39:05;;;;;;;14.70;13.27;;;20.80;99.90;;;;;;5072585;28;20485;-67
2022/07/02 07:41:33;;;;;;;14.60;13.30;;;20.90;99.90;;;;;;5071140;28;20878;-67
2022/07/02 07:44:00;;;;;;;15.27;13.70;;;21.10;99.90;;;;;;5070605;28;20527;-66
2022/07/02 07:46:26;;;;;;;16.03;14.60;;;21.10;99.90;;;;;;5071115;28;20944;-68
2022/07/02 07:48:53;;;;;;;13.17;12.30;;;21.30;99.90;;;;;;5071001;28;20464;-66
2022/07/02 07:51:20;;;;;;;13.57;12.40;;;21.30;99.90;;;;;;5070109;28;20482;-66
2022/07/02 07:53:47;;;;;;;13.80;12.60;;;21.40;99.90;;;;;;5071114;28;20464;-67
2022/07/02 07:56:16;;;;;;;14.20;12.93;;;21.50;99.90;;;;;;5071738;28;20457;-67
2022/07/02 07:58:43;;;;;;;14.00;13.00;;;21.50;99.90;;;;;;5071393;28;20458;-67
2022/07/02 08:01:10;;;;;;;15.27;13.67;;;21.60;99.90;;;;;;5070198;28;20467;-66
2022/07/02 08:03:37;;;;;;;14.37;12.97;;;21.70;99.90;;;;;;5070257;28;21603;-68
2022/07/02 08:06:04;;;;;;;14.27;13.03;;;21.80;99.90;;;;;;5071769;28;20811;-67
2022/07/02 08:08:31;;;;;;;16.87;13.93;;;22.40;99.90;;;;;;5070412;28;20473;-66
2022/07/02 08:10:58;;;;;;;14.83;13.93;;;23.00;99.90;;;;;;5071175;28;20895;-68
2022/07/02 08:13:26;;;;;;;15.00;13.53;;;23.80;99.90;;;;;;5071512;28;20454;-68
2022/07/02 08:15:53;;;;;;;15.80;14.50;;;24.70;99.90;;;;;;5070807;28;20573;-68
2022/07/02 08:18:20;;;;;;;15.23;13.70;;;25.70;99.90;;;;;;5070481;28;20976;-68
2022/07/02 08:20:47;;;;;;;23.80;15.13;;;26.40;99.40;;;;;;5083307;28;20465;-67
2022/07/02 08:23:14;;;;;;;18.03;14.73;;;26.50;96.40;;;;;;5089176;28;20661;-68
2022/07/02 08:25:41;;;;;;;15.00;13.63;;;27.10;93.70;;;;;;5070712;28;20496;-68
2022/07/02 08:28:08;;;;;;;20.77;14.30;;;26.50;93.30;;;;;;5070745;28;20477;-68
2022/07/02 08:30:36;;;;;;;20.43;15.07;;;26.90;92.60;;;;;;5070327;28;20902;-68
2022/07/02 08:33:04;;;;;;;16.27;14.67;;;27.40;92.00;;;;;;5070238;28;20458;-68
2022/07/02 08:35:31;;;;;;;16.00;13.70;;;28.30;87.70;;;;;;5073795;28;20953;-68
2022/07/02 08:37:58;;;;;;;14.17;13.53;;;28.70;79.30;;;;;;5103156;28;20453;-67
2022/07/02 08:40:27;;;;;;;15.13;14.40;;;28.70;77.00;;;;;;5071331;28;20474;-66
2022/07/02 08:42:55;;;;;;;14.23;13.43;;;28.60;71.10;;;;;;5073507;28;20798;-67
2022/07/02 08:45:23;;;;;;;14.83;14.03;;;28.70;70.40;;;;;;5085437;28;20541;-68
2022/07/02 08:47:54;;;;;;;14.70;14.00;;;29.40;69.00;;;;;;5085490;27;22459;-68
2022/07/02 08:50:21;;;;;;;14.93;14.23;;;29.80;61.40;;;;;;5073988;27;20454;-68
2022/07/02 08:52:50;;;;;;;14.30;13.53;;;29.30;57.80;;;;;;5073090;28;20481;-67
2022/07/02 08:55:19;;;;;;;13.30;12.80;;;29.30;58.90;;;;;;5092672;28;20462;-67
2022/07/02 08:57:47;;;;;;;14.13;13.23;;;29.30;59.60;;;;;;5097910;28;20848;-68
2022/07/02 09:00:15;;;;;;;13.80;13.10;;;29.40;57.90;;;;;;5072232;28;20494;-68
2022/07/02 09:02:43;;;;;;;13.63;12.63;;;29.10;55.90;;;;;;5069705;28;20465;-69
2022/07/02 09:05:28;;;;;;;12.97;12.37;;;29.10;55.10;;;;;;5070657;28;20976;-68
2022/07/02 09:07:56;;;;;;;13.50;12.90;;;29.50;54.80;;;;;;5071886;27;20468;-68
2022/07/02 09:10:24;;;;;;;13.87;13.27;;;29.20;54.80;;;;;;5071185;28;22852;-68
2022/07/02 09:12:53;;;;;;;13.23;12.47;;;28.70;55.10;;;;;;5071574;28;20846;-67
2022/07/02 09:15:20;;;;;;;13.00;12.40;;;28.30;55.70;;;;;;5070672;28;20870;-68
2022/07/02 09:17:47;;;;;;;14.60;13.07;;;28.30;56.80;;;;;;5070411;28;20469;-67
2022/07/02 09:20:14;;;;;;;13.50;12.80;;;29.40;53.00;;;;;;5070510;28;20640;-68
2022/07/02 09:22:45;;;;;;;13.33;12.73;;;29.40;51.80;;;;;;5070131;28;20477;-68
2022/07/02 09:25:14;;;;;;;13.80;13.17;;;29.20;50.80;;;;;;5070872;28;20492;-68
2022/07/02 09:27:41;;;;;;;14.20;13.43;;;29.20;53.20;;;;;;5071263;28;20497;-68
2022/07/02 09:30:11;;;;;;;14.30;13.33;;;29.20;51.60;;;;;;5070888;27;20461;-68
2022/07/02 09:32:43;;;;;;;13.57;12.97;;;28.70;50.40;;;;;;5069630;28;20495;-69
2022/07/02 09:35:18;;;;;;;15.10;13.77;;;28.00;52.20;;;;;;5070812;28;20454;-67
2022/07/02 09:37:47;;;;;;;14.63;13.50;;;27.50;53.20;;;;;;5070659;28;20492;-68
2022/07/02 09:40:15;;;;;;;14.60;13.70;;;27.20;53.40;;;;;;5070354;28;21178;-69
2022/07/02 09:42:46;;;;;;;15.27;13.83;;;27.60;53.40;;;;;;5069632;28;20465;-67
2022/07/02 09:45:14;;;;;;;13.77;13.07;;;28.90;50.40;;;;;;5091053;28;20464;-68
2022/07/02 09:47:48;;;;;;;14.43;13.77;;;29.40;49.10;;;;;;5090188;28;20466;-68
2022/07/02 09:50:16;;;;;;;14.80;13.70;;;30.30;48.60;;;;;;5101098;28;20461;-68
2022/07/02 09:52:50;;;;;;;14.20;13.40;;;30.60;47.30;;;;;;5069924;28;20484;-68
2022/07/02 09:55:24;;;;;;;14.90;14.00;;;30.70;46.50;;;;;;5069968;28;20465;-68
2022/07/02 09:57:52;;;;;;;14.33;13.70;;;30.40;46.80;;;;;;5069395;28;20625;-68
2022/07/02 10:00:20;;;;;;;14.20;13.60;;;30.70;45.40;;;;;;5070099;28;21316;-68
2022/07/02 10:02:51;;;;;;;14.30;13.60;;;31.20;47.50;;;;;;5069786;28;20476;-69
2022/07/02 10:05:23;;;;;;;14.50;13.80;;;31.00;45.40;;;;;;5069927;28;20556;-67
2022/07/02 10:07:53;;;;;;;14.20;13.40;;;30.30;45.90;;;;;;5070567;28;22369;-69
2022/07/02 10:10:27;;;;;;;14.60;13.90;;;30.10;46.50;;;;;;5069744;28;20469;-68
2022/07/02 10:12:56;;;;;;;14.10;13.23;;;30.80;44.10;;;;;;5069827;28;20496;-69
2022/07/02 10:15:25;;;;;;;14.07;13.47;;;30.80;45.20;;;;;;5069176;28;20466;-69
2022/07/02 10:17:54;;;;;;;14.23;13.33;;;30.50;44.60;;;;;;5069565;28;20461;-67
2022/07/02 10:20:22;;;;;;;14.23;13.63;;;29.90;45.50;;;;;;5069811;28;20500;-68
2022/07/02 10:22:51;;;;;;;13.43;12.80;;;29.20;44.40;;;;;;5069006;28;21197;-68
2022/07/02 10:25:18;;;;;;;13.97;13.07;;;28.10;45.10;;;;;;5069174;28;20500;-69
2022/07/02 10:27:47;;;;;;;13.53;12.80;;;28.30;45.00;;;;;;5069438;28;20469;-68
2022/07/02 10:30:15;;;;;;;13.83;13.23;;;29.20;45.20;;;;;;5068873;28;20794;-68
2022/07/02 10:32:50;;;;;;;13.77;13.07;;;29.50;44.30;;;;;;5068751;28;20494;-67
2022/07/02 10:35:18;;;;;;;14.23;13.33;;;30.40;43.40;;;;;;5069059;28;20446;-67
2022/07/02 10:37:45;;;;;;;14.40;13.60;;;30.60;44.50;;;;;;5069345;28;20595;-68
2022/07/02 10:40:18;;;;;;;13.63;12.83;;;31.50;42.40;;;;;;5069179;28;20457;-68
2022/07/02 10:42:48;;;;;;;13.93;13.33;;;31.40;40.40;;;;;;5068677;28;20524;-68
2022/07/02 10:45:16;;;;;;;13.63;12.83;;;29.00;41.20;;;;;;5068782;28;20996;-68
2022/07/02 10:47:59;;;;;;;12.60;12.00;;;28.00;43.50;;;;;;5069296;28;22340;-68
2022/07/02 10:50:27;;;;;;;13.50;12.87;;;28.00;43.40;;;;;;5069561;28;20481;-68
2022/07/02 10:52:54;;;;;;;13.10;12.50;;;29.10;44.00;;;;;;5069094;28;20783;-69
2022/07/02 10:55:28;;;;;;;13.37;12.77;;;29.90;43.10;;;;;;5069325;28;20458;-68
2022/07/02 10:57:59;;;;;;;13.17;12.57;;;31.10;40.90;;;;;;5068658;28;20469;-66
2022/07/02 11:00:31;;;;;;;12.93;12.30;;;31.70;40.60;;;;;;5068768;28;20477;-67
2022/07/02 11:02:58;;;;;;;13.30;12.70;;;31.50;40.40;;;;;;5068724;28;20441;-68
2022/07/02 11:05:26;;;;;;;13.87;13.17;;;32.10;41.10;;;;;;5068024;28;20458;-68
2022/07/02 11:07:53;;;;;;;13.93;13.20;;;32.70;40.30;;;;;;5068742;28;20862;-69
2022/07/02 11:10:28;;;;;;;14.73;13.40;;;33.60;41.00;;;;;;5069583;28;20557;-67
2022/07/02 11:13:00;;;;;;;13.70;13.10;;;33.90;39.70;;;;;;5067300;28;20493;-68
2022/07/02 11:15:36;;;;;;;13.00;12.47;;;34.00;38.20;;;;;;5068365;28;20472;-69
2022/07/02 11:18:06;;;;;;;13.90;13.10;;;34.20;38.10;;;;;;5068397;28;23090;-68
2022/07/02 11:20:35;;;;;;;13.43;12.77;;;35.00;38.00;;;;;;5068712;28;21271;-67
2022/07/02 11:23:02;;;;;;;13.33;12.80;;;35.80;34.40;;;;;;5068241;28;20563;-68
2022/07/02 11:25:32;;;;;;;14.67;13.80;;;34.50;33.90;;;;;;5068328;28;21196;-68
2022/07/02 11:28:00;;;;;;;15.40;12.90;;;34.40;35.30;;;;;;5068339;28;21117;-68
2022/07/02 11:30:29;;;;;;;13.30;12.60;;;34.50;34.30;;;;;;5067287;28;20473;-68
2022/07/02 11:32:57;;;;;;;12.93;12.43;;;34.10;34.70;;;;;;5067925;28;20496;-68
2022/07/02 11:35:24;;;;;;;13.70;12.80;;;34.10;34.90;;;;;;5068075;28;20476;-68
2022/07/02 11:37:57;;;;;;;12.60;12.10;;;34.90;35.10;;;;;;5067708;28;20535;-68
2022/07/02 11:40:24;;;;;;;13.13;12.40;;;34.30;35.60;;;;;;5068619;28;20473;-69
2022/07/02 11:42:53;;;;;;;13.30;12.70;;;34.50;34.60;;;;;;5066891;28;20474;-68
2022/07/02 11:45:20;;;;;;;13.60;12.90;;;35.50;32.30;;;;;;5067685;28;20956;-68
2022/07/02 11:47:48;;;;;;;12.80;12.20;;;35.20;33.20;;;;;;5068570;28;20466;-68
2022/07/02 11:50:15;;;;;;;13.37;12.77;;;34.00;33.20;;;;;;5068241;28;20707;-68
2022/07/02 11:52:42;;;;;;;13.87;12.60;;;33.90;34.10;;;;;;5066751;28;21064;-69
2022/07/02 11:55:16;;;;;;;13.67;12.67;;;34.40;33.40;;;;;;5067270;28;21208;-70
2022/07/02 11:57:44;;;;;;;13.70;13.00;;;34.10;33.40;;;;;;5067875;28;20469;-69
2022/07/02 12:00:14;;;;;;;13.23;12.63;;;32.70;35.60;;;;;;5067332;28;20458;-70
2022/07/02 12:02:42;;;;;;;12.83;12.23;;;32.50;34.80;;;;;;5067918;28;20519;-68
2022/07/02 12:05:17;;;;;;;13.10;12.50;;;31.70;35.60;;;;;;5067684;28;20453;-68
2022/07/02 12:07:44;;;;;;;13.50;12.70;;;32.80;36.00;;;;;;5067676;28;20445;-68
2022/07/02 12:10:12;;;;;;;13.40;12.60;;;34.40;35.00;;;;;;5067323;28;20470;-69
2022/07/02 12:12:39;;;;;;;13.20;12.70;;;34.90;33.70;;;;;;5067548;28;20529;-68
2022/07/02 12:15:07;;;;;;;13.60;12.80;;;35.20;34.00;;;;;;5066995;28;20654;-68
2022/07/02 12:17:36;;;;;;;13.90;12.90;;;35.40;32.70;;;;;;5067962;28;20473;-69
2022/07/02 12:20:04;;;;;;;13.97;12.97;;;35.00;31.50;;;;;;5068263;28;20511;-68
2022/07/02 12:22:33;;;;;;;13.40;12.73;;;34.90;33.00;;;;;;5067177;28;20466;-68
2022/07/02 12:25:01;;;;;;;12.93;12.33;;;35.30;32.60;;;;;;5067720;28;20469;-68
2022/07/02 12:27:29;;;;;;;12.90;12.30;;;35.20;32.80;;;;;;5068225;28;20475;-68
2022/07/02 12:29:56;;;;;;;13.70;12.60;;;35.40;32.70;;;;;;5067113;28;20818;-68
2022/07/02 12:32:26;;;;;;;13.20;12.40;;;35.90;30.10;;;;;;5066800;28;20931;-68
2022/07/02 12:34:56;;;;;;;13.47;12.60;;;36.00;30.30;;;;;;5067156;28;20462;-69
2022/07/02 12:37:26;;;;;;;13.17;12.53;;;36.10;30.60;;;;;;5067390;28;20461;-68
2022/07/02 12:40:01;;;;;;;12.73;12.13;;;36.40;30.70;;;;;;5066930;28;20468;-69
2022/07/02 12:42:31;;;;;;;12.67;12.07;;;36.30;30.10;;;;;;5066690;28;20952;-68